Terminal Aerodrome Forecast
Issued by NWS

Home | Current Version | Previous Version | Text Only | Print | Product List | Glossary On
Versions: 1 2 3 4 5 6 7 8 9 10 11 12 13 14 15 16 17 18 19 20 21 22 23 24 25 26 27 28
000
FTUS44 KFWD 222300
TAFFTW
TAF
KFTW 222337Z 2300/2324 33013KT P6SM BKN140 BKN220
     FM231100 36008KT 6SM RA OVC050
      TEMPO 2311/2315 5SM RA BR BKN025
     FM231900 36011KT P6SM OVC035
     FM232100 34014KT P6SM OVC080=

USA.gov is the U.S. government's official web portal to all federal, state and local government web resources and services.